createdAt,value
2019-05-26T00:00:01.186Z,13.14
2019-05-26T00:02:32.130Z,13.14
2019-05-26T00:05:03.033Z,13.16
2019-05-26T00:07:34.001Z,13.12
2019-05-26T00:10:05.303Z,13.14
2019-05-26T00:12:36.391Z,13.14
2019-05-26T00:15:07.662Z,13.08
2019-05-26T00:17:38.604Z,13.12
2019-05-26T00:20:09.973Z,13.23
2019-05-26T00:22:40.934Z,13.27
2019-05-26T00:25:12.080Z,13.30
2019-05-26T00:27:42.907Z,13.17
2019-05-26T00:30:14.241Z,13.03
2019-05-26T00:32:45.290Z,13.00
2019-05-26T00:35:16.345Z,13.02
2019-05-26T00:37:49.625Z,12.93
2019-05-26T00:40:20.976Z,12.88
2019-05-26T00:42:52.873Z,12.85
2019-05-26T00:45:23.910Z,12.79
2019-05-26T00:47:54.847Z,12.76
2019-05-26T00:50:25.870Z,12.76
2019-05-26T00:52:57.064Z,12.76
2019-05-26T00:55:28.270Z,12.71
2019-05-26T00:57:59.172Z,12.71
2019-05-26T01:00:40.283Z,12.74
2019-05-26T01:03:11.487Z,12.66
2019-05-26T01:05:42.616Z,12.52
2019-05-26T01:08:13.852Z,12.34
2019-05-26T01:10:44.793Z,12.36
2019-05-26T01:13:15.787Z,12.38
2019-05-26T01:15:46.692Z,12.38
2019-05-26T01:18:17.665Z,12.42
2019-05-26T01:20:48.546Z,12.38
2019-05-26T01:23:19.493Z,12.25
2019-05-26T01:25:50.341Z,12.15
2019-05-26T01:28:21.557Z,12.14
2019-05-26T01:30:52.529Z,12.04
2019-05-26T01:33:23.508Z,11.92
2019-05-26T01:35:54.476Z,12.02
2019-05-26T01:38:26.735Z,12.07
2019-05-26T01:40:57.535Z,12.10
2019-05-26T01:43:28.438Z,12.11
2019-05-26T01:45:59.355Z,12.11
2019-05-26T01:48:30.301Z,12.03
2019-05-26T01:51:01.541Z,12.01
2019-05-26T01:53:32.390Z,11.82
2019-05-26T01:56:04.090Z,11.90
2019-05-26T01:58:35.076Z,11.91
2019-05-26T02:01:06.410Z,11.92
2019-05-26T02:03:37.639Z,11.89
2019-05-26T02:06:08.887Z,11.80
2019-05-26T02:08:40.007Z,11.92
2019-05-26T02:11:11.346Z,11.90
2019-05-26T02:13:43.470Z,11.97
2019-05-26T02:16:14.370Z,12.09
2019-05-26T02:18:45.607Z,12.05
2019-05-26T02:21:16.857Z,12.10
2019-05-26T02:23:48.795Z,12.05
2019-05-26T02:26:20.093Z,12.07
2019-05-26T02:28:50.936Z,12.12
2019-05-26T02:31:22.171Z,12.13
2019-05-26T02:33:53.088Z,12.04
2019-05-26T02:36:24.065Z,12.13
2019-05-26T02:39:02.600Z,12.09
2019-05-26T02:41:28.177Z,12.04
2019-05-26T02:43:59.051Z,11.96
2019-05-26T02:46:30.355Z,11.83
2019-05-26T02:49:01.345Z,11.71
2019-05-26T02:51:32.602Z,11.77
2019-05-26T02:54:03.963Z,11.59
2019-05-26T02:56:35.333Z,11.65
2019-05-26T02:59:06.601Z,11.54
2019-05-26T03:01:38.456Z,11.51
2019-05-26T03:04:09.855Z,11.51
2019-05-26T03:06:41.979Z,11.63
2019-05-26T03:09:22.741Z,11.66
2019-05-26T03:11:50.411Z,11.70
2019-05-26T03:14:21.673Z,11.69
2019-05-26T03:16:54.556Z,11.68
2019-05-26T03:19:27.419Z,11.70
2019-05-26T03:22:00.445Z,11.71
2019-05-26T03:24:32.708Z,11.78
2019-05-26T03:27:03.952Z,11.78
2019-05-26T03:29:34.814Z,11.74
2019-05-26T03:32:06.169Z,11.81
2019-05-26T03:34:36.994Z,11.68
2019-05-26T03:37:08.335Z,11.80
2019-05-26T03:39:45.490Z,11.86
2019-05-26T03:42:12.452Z,11.86
2019-05-26T03:44:43.661Z,11.98
2019-05-26T03:47:16.955Z,11.88
2019-05-26T03:49:48.380Z,11.81
2019-05-26T03:52:19.660Z,11.85
2019-05-26T03:54:50.529Z,11.99
2019-05-26T03:57:22.714Z,11.79
2019-05-26T03:59:53.837Z,11.97
2019-05-26T04:02:25.254Z,12.06
2019-05-26T04:04:56.059Z,12.15
2019-05-26T04:07:27.046Z,12.29
2019-05-26T04:10:04.591Z,12.33
2019-05-26T04:12:30.869Z,12.43
2019-05-26T04:15:01.879Z,12.43
2019-05-26T04:17:32.938Z,12.36
2019-05-26T04:20:03.834Z,12.47
2019-05-26T04:22:34.669Z,12.47
2019-05-26T04:25:06.712Z,12.47
2019-05-26T04:27:37.627Z,12.50
2019-05-26T04:30:08.735Z,12.62
2019-05-26T04:32:39.633Z,12.82
2019-05-26T04:35:10.603Z,12.58
2019-05-26T04:37:41.432Z,12.39
2019-05-26T04:40:26.764Z,12.23
2019-05-26T04:42:45.321Z,12.23
2019-05-26T04:45:16.379Z,12.34
2019-05-26T04:47:47.384Z,12.43
2019-05-26T04:50:18.371Z,12.53
2019-05-26T04:53:05.216Z,12.82
2019-05-26T04:55:22.078Z,13.12
2019-05-26T04:57:53.986Z,13.54
2019-05-26T05:00:25.069Z,13.87
2019-05-26T05:02:56.074Z,14.20
2019-05-26T05:05:27.045Z,14.49
2019-05-26T05:07:57.908Z,14.64
2019-05-26T05:10:41.251Z,14.78
2019-05-26T05:13:01.293Z,15.22
2019-05-26T05:15:32.209Z,16.33
2019-05-26T05:18:03.315Z,16.96
2019-05-26T05:20:34.187Z,16.96
2019-05-26T05:23:05.237Z,17.64
2019-05-26T05:25:36.078Z,18.11
2019-05-26T05:28:06.976Z,18.56
2019-05-26T05:30:37.928Z,18.86
2019-05-26T05:33:08.791Z,19.48
2019-05-26T05:35:39.670Z,19.40
2019-05-26T05:38:10.848Z,20.32
2019-05-26T05:40:58.017Z,20.48
2019-05-26T05:43:14.621Z,21.04
2019-05-26T05:45:46.579Z,21.67
2019-05-26T05:48:17.442Z,21.72
2019-05-26T05:50:48.332Z,19.48
2019-05-26T05:53:19.181Z,20.25
2019-05-26T05:55:50.074Z,20.40
2019-05-26T05:58:20.865Z,20.64
2019-05-26T06:00:51.952Z,21.77
2019-05-26T06:03:22.740Z,21.47
2019-05-26T06:05:53.864Z,21.09
2019-05-26T06:08:24.954Z,21.66
2019-05-26T06:10:55.910Z,21.65
2019-05-26T06:13:26.768Z,21.52
2019-05-26T06:15:57.592Z,21.41
2019-05-26T06:18:28.484Z,21.35
2019-05-26T06:20:59.327Z,22.21
2019-05-26T06:23:30.162Z,22.69
2019-05-26T06:26:01.038Z,22.81
2019-05-26T06:28:33.054Z,22.89
2019-05-26T06:31:04.100Z,22.66
2019-05-26T06:33:35.154Z,22.58
2019-05-26T06:36:06.059Z,21.70
2019-05-26T06:38:37.931Z,22.07
2019-05-26T06:41:08.793Z,22.10
2019-05-26T06:43:39.607Z,22.39
2019-05-26T06:46:10.467Z,23.46
2019-05-26T06:48:41.289Z,24.33
2019-05-26T06:51:12.193Z,24.01
2019-05-26T06:53:43.284Z,23.37
2019-05-26T06:56:14.194Z,24.04
2019-05-26T06:58:45.049Z,23.77
2019-05-26T07:01:16.042Z,23.37
2019-05-26T07:03:46.978Z,22.65
2019-05-26T07:06:17.915Z,23.04
2019-05-26T07:08:48.736Z,24.26
2019-05-26T07:11:19.709Z,24.23
2019-05-26T07:13:50.572Z,25.15
2019-05-26T07:16:36.803Z,25.49
2019-05-26T07:18:54.122Z,24.70
2019-05-26T07:21:24.981Z,25.55
2019-05-26T07:23:55.857Z,25.72
2019-05-26T07:26:26.710Z,26.17
2019-05-26T07:28:57.572Z,26.55
2019-05-26T07:31:28.442Z,27.23
2019-05-26T07:33:59.404Z,27.99
2019-05-26T07:36:30.432Z,26.84
2019-05-26T07:39:01.492Z,26.69
2019-05-26T07:41:33.714Z,25.34
2019-05-26T07:44:04.672Z,25.37
2019-05-26T07:46:35.547Z,25.49
2019-05-26T07:49:06.739Z,25.00
2019-05-26T07:51:37.675Z,25.49
2019-05-26T07:54:22.733Z,25.54
2019-05-26T07:56:41.116Z,25.12
2019-05-26T07:59:12.053Z,24.79
2019-05-26T08:01:42.933Z,25.49
2019-05-26T08:04:13.835Z,26.01
2019-05-26T08:06:44.745Z,25.54
2019-05-26T08:09:15.683Z,25.85
2019-05-26T08:11:46.662Z,25.28
2019-05-26T08:14:17.751Z,25.61
2019-05-26T08:16:48.801Z,26.14
2019-05-26T08:19:19.657Z,26.21
2019-05-26T08:21:50.427Z,26.34
2019-05-26T08:24:21.292Z,26.66
2019-05-26T08:26:52.105Z,27.04
2019-05-26T08:29:22.942Z,26.78
2019-05-26T08:31:53.893Z,26.96
2019-05-26T08:34:24.959Z,27.63
2019-05-26T08:36:55.886Z,26.77
2019-05-26T08:39:26.775Z,26.86
2019-05-26T08:41:57.674Z,26.67
2019-05-26T08:44:28.502Z,26.58
2019-05-26T08:46:59.413Z,26.42
2019-05-26T08:49:36.262Z,26.33
2019-05-26T08:52:07.265Z,26.34
2019-05-26T08:54:38.048Z,26.74
2019-05-26T08:57:09.146Z,26.61
2019-05-26T08:59:40.052Z,26.44
2019-05-26T09:02:11.033Z,26.87
2019-05-26T09:04:41.812Z,27.18
2019-05-26T09:07:12.803Z,27.04
2019-05-26T09:09:43.904Z,27.21
2019-05-26T09:12:15.167Z,27.41
2019-05-26T09:14:45.982Z,27.56
2019-05-26T09:17:17.021Z,27.39
2019-05-26T09:19:47.848Z,27.12
2019-05-26T09:22:18.646Z,26.98
2019-05-26T09:24:49.593Z,26.90
2019-05-26T09:27:20.418Z,28.00
2019-05-26T09:29:51.372Z,27.22
2019-05-26T09:32:22.251Z,27.24
2019-05-26T09:34:53.235Z,27.73
2019-05-26T09:37:24.142Z,27.19
2019-05-26T09:39:54.997Z,27.19
2019-05-26T09:42:25.831Z,27.65
2019-05-26T09:44:56.749Z,27.62
2019-05-26T09:47:27.716Z,27.02
2019-05-26T09:49:58.752Z,27.21
2019-05-26T09:52:29.728Z,27.04
2019-05-26T09:55:00.618Z,26.99
2019-05-26T09:57:31.445Z,27.43
2019-05-26T10:00:02.368Z,28.15
2019-05-26T10:02:33.274Z,27.44
2019-05-26T10:05:04.181Z,27.81
2019-05-26T10:07:35.148Z,27.88
2019-05-26T10:10:07.181Z,28.21
2019-05-26T10:12:38.129Z,28.53
2019-05-26T10:15:10.609Z,27.87
2019-05-26T10:17:41.724Z,27.92
2019-05-26T10:20:12.953Z,28.44
2019-05-26T10:22:43.924Z,28.08
2019-05-26T10:25:15.170Z,28.15
2019-05-26T10:27:46.046Z,28.51
2019-05-26T10:30:17.344Z,28.05
2019-05-26T10:32:48.229Z,28.12
2019-05-26T10:35:19.207Z,28.02
2019-05-26T10:37:50.086Z,27.52
2019-05-26T10:40:21.170Z,27.63
2019-05-26T10:42:52.119Z,27.87
2019-05-26T10:45:23.097Z,28.48
2019-05-26T10:47:53.985Z,28.70
2019-05-26T10:50:24.955Z,28.92
2019-05-26T10:52:55.846Z,29.02
2019-05-26T10:55:26.646Z,29.65
2019-05-26T10:57:57.626Z,29.52
2019-05-26T11:00:28.665Z,29.13
2019-05-26T11:02:59.517Z,28.29
2019-05-26T11:05:30.410Z,28.71
2019-05-26T11:08:01.229Z,28.60
2019-05-26T11:10:33.333Z,28.72
2019-05-26T11:13:04.352Z,28.86
2019-05-26T11:15:35.404Z,28.93
2019-05-26T11:18:06.472Z,28.51
2019-05-26T11:20:37.367Z,29.20
2019-05-26T11:23:08.372Z,29.28
2019-05-26T11:25:39.335Z,29.56
2019-05-26T11:28:10.084Z,29.27
2019-05-26T11:30:41.172Z,29.54
2019-05-26T11:33:12.211Z,28.30
2019-05-26T11:35:43.119Z,27.89
2019-05-26T11:38:13.944Z,26.93
2019-05-26T11:40:44.827Z,26.89
2019-05-26T11:43:17.141Z,27.46
2019-05-26T11:45:48.366Z,27.21
2019-05-26T11:48:19.241Z,27.47
2019-05-26T11:50:50.170Z,27.73
2019-05-26T11:53:21.102Z,27.25
2019-05-26T11:55:53.018Z,27.27
2019-05-26T11:58:23.971Z,27.04
2019-05-26T12:00:55.955Z,26.86
2019-05-26T12:03:26.827Z,26.89
2019-05-26T12:05:57.827Z,27.05
2019-05-26T12:08:28.668Z,26.72
2019-05-26T12:10:59.502Z,26.82
2019-05-26T12:13:30.529Z,27.07
2019-05-26T12:16:01.437Z,27.39
2019-05-26T12:18:32.241Z,27.53
2019-05-26T12:21:03.094Z,27.69
2019-05-26T12:23:34.152Z,27.80
2019-05-26T12:26:05.285Z,27.83
2019-05-26T12:28:36.295Z,27.52
2019-05-26T12:31:07.350Z,27.11
2019-05-26T12:33:38.177Z,26.85
2019-05-26T12:36:09.369Z,26.70
2019-05-26T12:38:51.149Z,26.79
2019-05-26T12:41:24.816Z,26.76
2019-05-26T12:43:55.731Z,26.76
2019-05-26T12:46:26.588Z,26.99
2019-05-26T12:48:57.420Z,26.90
2019-05-26T12:51:28.344Z,27.20
2019-05-26T12:53:59.309Z,27.43
2019-05-26T12:56:30.148Z,27.31
2019-05-26T12:59:00.942Z,27.33
2019-05-26T13:01:31.782Z,27.43
2019-05-26T13:04:02.638Z,26.96
2019-05-26T13:06:33.597Z,26.67
2019-05-26T13:09:06.407Z,26.76
2019-05-26T13:11:37.177Z,26.90
2019-05-26T13:14:08.210Z,27.15
2019-05-26T13:16:39.158Z,27.20
2019-05-26T13:19:09.968Z,27.47
2019-05-26T13:21:40.893Z,26.84
2019-05-26T13:24:11.747Z,27.06
2019-05-26T13:26:42.719Z,27.21
2019-05-26T13:29:13.631Z,27.33
2019-05-26T13:31:44.631Z,27.12
2019-05-26T13:34:15.458Z,27.00
2019-05-26T13:36:46.276Z,27.16
2019-05-26T13:39:17.100Z,27.33
2019-05-26T13:41:47.929Z,27.58
2019-05-26T13:44:18.959Z,27.37
2019-05-26T13:46:49.897Z,27.55
2019-05-26T13:49:20.780Z,27.61
2019-05-26T13:51:51.600Z,27.67
2019-05-26T13:54:22.436Z,27.94
2019-05-26T13:56:53.397Z,27.86
2019-05-26T13:59:24.356Z,28.17
2019-05-26T14:01:55.220Z,28.08
2019-05-26T14:04:26.110Z,27.95
2019-05-26T14:06:57.013Z,27.65
2019-05-26T14:09:27.858Z,27.54
2019-05-26T14:11:58.852Z,27.43
2019-05-26T14:14:29.780Z,27.54
2019-05-26T14:17:02.804Z,27.58
2019-05-26T14:19:34.716Z,27.43
2019-05-26T14:22:06.237Z,27.46
2019-05-26T14:24:52.453Z,27.55
2019-05-26T14:27:09.774Z,27.64
2019-05-26T14:29:40.580Z,27.58
2019-05-26T14:32:11.488Z,27.45
2019-05-26T14:34:42.373Z,27.41
2019-05-26T14:37:13.351Z,27.38
2019-05-26T14:39:44.149Z,27.28
2019-05-26T14:42:15.339Z,27.41
2019-05-26T14:44:46.487Z,27.58
2019-05-26T14:47:17.414Z,27.54
2019-05-26T14:49:48.304Z,27.55
2019-05-26T14:52:19.128Z,27.52
2019-05-26T14:54:49.969Z,27.54
2019-05-26T14:57:21.035Z,27.29
2019-05-26T14:59:51.845Z,27.04
2019-05-26T15:02:22.672Z,26.78
2019-05-26T15:04:53.487Z,26.69
2019-05-26T15:07:24.312Z,26.46
2019-05-26T15:09:55.627Z,26.61
2019-05-26T15:12:26.576Z,26.62
2019-05-26T15:14:58.096Z,26.43
2019-05-26T15:17:30.159Z,26.64
2019-05-26T15:20:01.778Z,26.74
2019-05-26T15:22:32.748Z,26.74
2019-05-26T15:25:04.181Z,26.90
2019-05-26T15:27:35.035Z,26.96
2019-05-26T15:30:07.821Z,26.85
2019-05-26T15:32:39.871Z,26.89
2019-05-26T15:35:11.189Z,26.87
2019-05-26T15:37:42.041Z,26.93
2019-05-26T15:40:13.732Z,26.93
2019-05-26T15:42:44.527Z,27.06
2019-05-26T15:45:16.549Z,26.92
2019-05-26T15:47:47.622Z,27.02
2019-05-26T15:50:18.698Z,27.06
2019-05-26T15:52:49.642Z,27.16
2019-05-26T15:55:20.665Z,27.12
2019-05-26T15:57:52.029Z,27.15
2019-05-26T16:00:24.986Z,27.16
2019-05-26T16:02:57.213Z,27.19
2019-05-26T16:05:28.128Z,27.27
2019-05-26T16:07:59.068Z,27.02
2019-05-26T16:10:29.952Z,27.05
2019-05-26T16:13:00.791Z,27.17
2019-05-26T16:15:31.746Z,27.14
2019-05-26T16:18:02.842Z,26.97
2019-05-26T16:20:33.894Z,26.80
2019-05-26T16:23:08.424Z,26.64
2019-05-26T16:25:37.562Z,26.55
2019-05-26T16:28:08.581Z,26.38
2019-05-26T16:30:39.436Z,26.34
2019-05-26T16:33:10.376Z,26.17
2019-05-26T16:35:41.404Z,26.04
2019-05-26T16:38:12.298Z,25.95
2019-05-26T16:40:43.072Z,25.97
2019-05-26T16:43:13.862Z,25.85
2019-05-26T16:45:55.597Z,25.93
2019-05-26T16:48:17.282Z,25.88
2019-05-26T16:50:48.363Z,25.69
2019-05-26T16:53:19.172Z,25.75
2019-05-26T16:55:49.999Z,25.65
2019-05-26T16:58:20.907Z,25.70
2019-05-26T17:00:51.909Z,25.78
2019-05-26T17:03:22.824Z,25.68
2019-05-26T17:06:06.977Z,25.58
2019-05-26T17:08:26.323Z,25.56
2019-05-26T17:10:58.139Z,25.56
2019-05-26T17:13:28.980Z,25.52
2019-05-26T17:15:59.809Z,25.42
2019-05-26T17:18:30.636Z,25.53
2019-05-26T17:21:01.484Z,25.31
2019-05-26T17:23:32.380Z,25.31
2019-05-26T17:26:03.444Z,25.20
2019-05-26T17:28:34.337Z,24.90
2019-05-26T17:31:06.602Z,24.81
2019-05-26T17:33:37.479Z,24.64
2019-05-26T17:36:08.359Z,24.44
2019-05-26T17:38:39.150Z,24.23
2019-05-26T17:41:10.162Z,24.13
2019-05-26T17:43:41.193Z,24.10
2019-05-26T17:46:15.135Z,24.02
2019-05-26T17:48:44.722Z,23.91
2019-05-26T17:51:16.617Z,24.04
2019-05-26T17:53:47.512Z,24.04
2019-05-26T17:56:18.320Z,24.06
2019-05-26T17:58:49.137Z,24.05
2019-05-26T18:01:20.041Z,24.10
2019-05-26T18:03:50.887Z,23.89
2019-05-26T18:06:22.139Z,23.85
2019-05-26T18:08:52.992Z,23.86
2019-05-26T18:11:23.878Z,23.81
2019-05-26T18:13:54.775Z,23.78
2019-05-26T18:16:25.634Z,23.85
2019-05-26T18:18:57.598Z,23.87
2019-05-26T18:21:28.546Z,23.78
2019-05-26T18:23:59.563Z,23.58
2019-05-26T18:26:30.951Z,23.52
2019-05-26T18:29:01.952Z,23.50
2019-05-26T18:31:33.886Z,23.43
2019-05-26T18:34:05.011Z,23.39
2019-05-26T18:36:35.976Z,23.45
2019-05-26T18:39:08.775Z,23.59
2019-05-26T18:41:39.650Z,23.74
2019-05-26T18:44:10.570Z,23.61
2019-05-26T18:46:41.519Z,23.63
2019-05-26T18:49:12.373Z,23.65
2019-05-26T18:51:43.194Z,23.74
2019-05-26T18:54:13.978Z,23.76
2019-05-26T18:56:46.069Z,23.81
2019-05-26T18:59:17.002Z,23.94
2019-05-26T19:01:47.862Z,24.03
2019-05-26T19:04:18.735Z,24.01
2019-05-26T19:06:49.725Z,24.03
2019-05-26T19:09:23.568Z,23.77
2019-05-26T19:11:54.477Z,23.53
2019-05-26T19:14:25.427Z,23.34
2019-05-26T19:16:56.446Z,23.37
2019-05-26T19:19:27.385Z,23.41
2019-05-26T19:21:58.447Z,23.37
2019-05-26T19:24:30.443Z,23.36
2019-05-26T19:27:01.373Z,23.27
2019-05-26T19:29:32.345Z,23.26
2019-05-26T19:32:03.253Z,23.17
2019-05-26T19:34:34.135Z,22.92
2019-05-26T19:37:05.259Z,22.81
2019-05-26T19:39:36.159Z,22.72
2019-05-26T19:42:07.450Z,22.69
2019-05-26T19:44:38.349Z,22.60
2019-05-26T19:47:09.281Z,22.53
2019-05-26T19:49:40.083Z,22.50
2019-05-26T19:52:12.067Z,22.38
2019-05-26T19:54:42.979Z,22.38
2019-05-26T19:57:13.860Z,22.33
2019-05-26T19:59:44.728Z,22.15
2019-05-26T20:02:18.774Z,22.04
2019-05-26T20:04:48.433Z,21.94
2019-05-26T20:07:22.502Z,21.97
2019-05-26T20:09:53.357Z,21.97
2019-05-26T20:12:24.279Z,21.75
2019-05-26T20:14:55.221Z,21.77
2019-05-26T20:17:26.117Z,21.60
2019-05-26T20:19:56.960Z,21.34
2019-05-26T20:22:28.026Z,21.38
2019-05-26T20:24:58.909Z,21.37
2019-05-26T20:27:29.818Z,21.42
2019-05-26T20:30:00.911Z,21.20
2019-05-26T20:32:31.805Z,21.25
2019-05-26T20:35:02.736Z,21.25
2019-05-26T20:37:33.636Z,21.30
2019-05-26T20:40:04.875Z,21.21
2019-05-26T20:42:35.868Z,21.24
2019-05-26T20:45:08.403Z,21.12
2019-05-26T20:47:39.292Z,21.05
2019-05-26T20:50:25.881Z,21.12
2019-05-26T20:52:43.431Z,21.24
2019-05-26T20:55:14.496Z,21.06
2019-05-26T20:57:45.408Z,20.90
2019-05-26T21:00:18.003Z,21.02
2019-05-26T21:02:48.912Z,21.11
2019-05-26T21:05:19.932Z,21.04
2019-05-26T21:07:50.724Z,21.18
2019-05-26T21:10:21.694Z,21.07
2019-05-26T21:12:52.627Z,21.13
2019-05-26T21:15:23.438Z,21.13
2019-05-26T21:17:54.304Z,21.20
2019-05-26T21:20:25.255Z,21.26
2019-05-26T21:22:56.103Z,21.19
2019-05-26T21:25:27.537Z,21.23
2019-05-26T21:27:58.381Z,21.37
2019-05-26T21:30:29.636Z,21.39
2019-05-26T21:33:00.463Z,21.19
2019-05-26T21:38:00.794Z,20.95
2019-05-26T21:40:31.627Z,21.07
2019-05-26T21:43:02.462Z,21.00
2019-05-26T21:45:33.293Z,21.16
2019-05-26T21:48:04.116Z,21.08
2019-05-26T21:50:34.923Z,20.89
2019-05-26T21:53:05.957Z,20.85
2019-05-26T21:55:36.787Z,20.93
2019-05-26T21:58:07.697Z,20.96
2019-05-26T22:00:45.251Z,21.07
2019-05-26T22:03:16.257Z,21.13
2019-05-26T22:05:47.292Z,21.19
2019-05-26T22:08:18.138Z,21.16
2019-05-26T22:10:49.052Z,20.87
2019-05-26T22:13:21.304Z,20.92
2019-05-26T22:15:52.211Z,20.98
2019-05-26T22:18:24.110Z,21.00
2019-05-26T22:20:54.960Z,20.97
2019-05-26T22:23:25.888Z,20.64
2019-05-26T22:25:56.732Z,20.50
2019-05-26T22:28:27.629Z,20.54
2019-05-26T22:30:58.510Z,20.30
2019-05-26T22:33:29.376Z,20.30
2019-05-26T22:36:00.190Z,20.38
2019-05-26T22:38:31.047Z,20.36
2019-05-26T22:41:01.939Z,20.49
2019-05-26T22:43:32.945Z,20.39
2019-05-26T22:46:03.936Z,20.09
2019-05-26T22:48:34.758Z,19.93
2019-05-26T22:51:05.871Z,19.85
2019-05-26T22:53:36.751Z,19.80
2019-05-26T22:56:07.614Z,19.69
2019-05-26T22:58:38.581Z,19.67
2019-05-26T23:01:09.623Z,19.63
2019-05-26T23:03:40.486Z,19.67
2019-05-26T23:06:11.430Z,19.79
2019-05-26T23:08:42.401Z,19.82
2019-05-26T23:11:13.368Z,19.67
2019-05-26T23:13:44.252Z,19.80
2019-05-26T23:16:15.132Z,19.71
2019-05-26T23:18:46.049Z,19.61
2019-05-26T23:21:16.991Z,19.63
2019-05-26T23:23:47.996Z,19.68
2019-05-26T23:26:19.039Z,19.56
2019-05-26T23:28:50.033Z,19.64
2019-05-26T23:31:21.201Z,19.61
2019-05-26T23:33:52.038Z,19.54
2019-05-26T23:36:22.973Z,19.52
2019-05-26T23:38:54.039Z,19.47
2019-05-26T23:41:24.887Z,19.43
2019-05-26T23:43:55.712Z,19.47
2019-05-26T23:46:26.560Z,19.40
2019-05-26T23:48:57.503Z,19.35
2019-05-26T23:51:28.388Z,19.26
2019-05-26T23:53:59.185Z,19.33
2019-05-26T23:56:30.023Z,19.29
2019-05-26T23:59:00.886Z,19.16
